sensor_id;sensor_type;location;lat;lon;timestamp;P1;durP1;ratioP1;P2;durP2;ratioP2
49784;SDS011;35679;38.732;-121.358;2023-04-16T00:02:03;2.50;;;2.40;;
49784;SDS011;35679;38.732;-121.358;2023-04-16T00:04:53;2.45;;;2.35;;
49784;SDS011;35679;38.732;-121.358;2023-04-16T00:07:42;2.45;;;2.35;;
49784;SDS011;35679;38.732;-121.358;2023-04-16T00:10:33;2.40;;;2.30;;
49784;SDS011;35679;38.732;-121.358;2023-04-16T00:13:23;2.50;;;2.30;;
49784;SDS011;35679;38.732;-121.358;2023-04-16T00:16:14;2.38;;;2.17;;
49784;SDS011;35679;38.732;-121.358;2023-04-16T00:19:03;2.63;;;2.50;;
49784;SDS011;35679;38.732;-121.358;2023-04-16T00:21:53;2.50;;;2.40;;
49784;SDS011;35679;38.732;-121.358;2023-04-16T00:24:42;2.63;;;2.42;;
49784;SDS011;35679;38.732;-121.358;2023-04-16T00:27:31;2.50;;;2.30;;
49784;SDS011;35679;38.732;-121.358;2023-04-16T00:30:21;2.50;;;2.30;;
49784;SDS011;35679;38.732;-121.358;2023-04-16T00:33:10;2.40;;;2.30;;
49784;SDS011;35679;38.732;-121.358;2023-04-16T00:36:00;2.38;;;2.28;;
49784;SDS011;35679;38.732;-121.358;2023-04-16T00:38:49;2.97;;;2.50;;
49784;SDS011;35679;38.732;-121.358;2023-04-16T00:41:38;2.47;;;2.38;;
49784;SDS011;35679;38.732;-121.358;2023-04-16T00:44:28;2.40;;;2.30;;
49784;SDS011;35679;38.732;-121.358;2023-04-16T00:47:18;2.47;;;2.38;;
49784;SDS011;35679;38.732;-121.358;2023-04-16T00:50:08;2.65;;;2.53;;
49784;SDS011;35679;38.732;-121.358;2023-04-16T00:52:59;2.40;;;2.30;;
49784;SDS011;35679;38.732;-121.358;2023-04-16T00:55:50;2.70;;;2.50;;
49784;SDS011;35679;38.732;-121.358;2023-04-16T00:58:39;3.10;;;2.20;;
49784;SDS011;35679;38.732;-121.358;2023-04-16T01:01:29;2.50;;;2.40;;
49784;SDS011;35679;38.732;-121.358;2023-04-16T01:04:18;2.60;;;2.40;;
49784;SDS011;35679;38.732;-121.358;2023-04-16T01:07:08;2.47;;;2.38;;
49784;SDS011;35679;38.732;-121.358;2023-04-16T01:09:58;2.30;;;2.20;;
49784;SDS011;35679;38.732;-121.358;2023-04-16T01:12:47;2.22;;;2.13;;
49784;SDS011;35679;38.732;-121.358;2023-04-16T01:15:36;2.40;;;2.30;;
49784;SDS011;35679;38.732;-121.358;2023-04-16T01:18:26;2.40;;;2.30;;
49784;SDS011;35679;38.732;-121.358;2023-04-16T01:21:16;2.42;;;2.22;;
49784;SDS011;35679;38.732;-121.358;2023-04-16T01:24:05;2.70;;;2.60;;
49784;SDS011;35679;38.732;-121.358;2023-04-16T01:26:56;2.40;;;2.30;;
49784;SDS011;35679;38.732;-121.358;2023-04-16T01:29:47;2.30;;;2.20;;
49784;SDS011;35679;38.732;-121.358;2023-04-16T01:32:41;2.25;;;2.10;;
49784;SDS011;35679;38.732;-121.358;2023-04-16T01:35:31;2.78;;;2.58;;
49784;SDS011;35679;38.732;-121.358;2023-04-16T01:38:20;2.45;;;2.35;;
49784;SDS011;35679;38.732;-121.358;2023-04-16T01:41:09;2.50;;;2.40;;
49784;SDS011;35679;38.732;-121.358;2023-04-16T01:44:00;2.40;;;2.30;;
49784;SDS011;35679;38.732;-121.358;2023-04-16T01:46:49;2.65;;;2.50;;
49784;SDS011;35679;38.732;-121.358;2023-04-16T01:49:40;2.13;;;2.03;;
49784;SDS011;35679;38.732;-121.358;2023-04-16T01:52:31;2.30;;;2.20;;
49784;SDS011;35679;38.732;-121.358;2023-04-16T01:55:20;2.85;;;2.65;;
49784;SDS011;35679;38.732;-121.358;2023-04-16T01:58:10;2.50;;;2.40;;
49784;SDS011;35679;38.732;-121.358;2023-04-16T02:01:02;2.40;;;2.30;;
49784;SDS011;35679;38.732;-121.358;2023-04-16T02:03:53;2.50;;;2.40;;
49784;SDS011;35679;38.732;-121.358;2023-04-16T02:06:42;2.30;;;2.20;;
49784;SDS011;35679;38.732;-121.358;2023-04-16T02:09:33;2.40;;;2.30;;
49784;SDS011;35679;38.732;-121.358;2023-04-16T02:12:25;2.35;;;2.25;;
49784;SDS011;35679;38.732;-121.358;2023-04-16T02:15:14;2.40;;;2.30;;
49784;SDS011;35679;38.732;-121.358;2023-04-16T02:18:04;2.30;;;2.20;;
49784;SDS011;35679;38.732;-121.358;2023-04-16T02:20:57;2.78;;;2.67;;
49784;SDS011;35679;38.732;-121.358;2023-04-16T02:23:47;2.28;;;2.17;;
49784;SDS011;35679;38.732;-121.358;2023-04-16T02:26:45;2.30;;;2.20;;
49784;SDS011;35679;38.732;-121.358;2023-04-16T02:29:37;2.40;;;2.30;;
49784;SDS011;35679;38.732;-121.358;2023-04-16T02:32:32;2.22;;;2.13;;
49784;SDS011;35679;38.732;-121.358;2023-04-16T02:35:22;2.60;;;2.40;;
49784;SDS011;35679;38.732;-121.358;2023-04-16T02:38:11;2.40;;;2.30;;
49784;SDS011;35679;38.732;-121.358;2023-04-16T02:41:00;2.40;;;2.25;;
49784;SDS011;35679;38.732;-121.358;2023-04-16T02:43:50;2.70;;;2.50;;
49784;SDS011;35679;38.732;-121.358;2023-04-16T02:46:39;2.60;;;2.50;;
49784;SDS011;35679;38.732;-121.358;2023-04-16T02:49:29;2.70;;;2.55;;
49784;SDS011;35679;38.732;-121.358;2023-04-16T02:52:18;2.42;;;2.33;;
49784;SDS011;35679;38.732;-121.358;2023-04-16T02:55:08;2.58;;;2.47;;
49784;SDS011;35679;38.732;-121.358;2023-04-16T02:57:58;2.72;;;2.63;;
49784;SDS011;35679;38.732;-121.358;2023-04-16T03:00:48;2.97;;;2.88;;
49784;SDS011;35679;38.732;-121.358;2023-04-16T03:03:37;2.40;;;2.30;;
49784;SDS011;35679;38.732;-121.358;2023-04-16T03:06:27;2.45;;;2.35;;
49784;SDS011;35679;38.732;-121.358;2023-04-16T03:09:16;2.50;;;2.40;;
49784;SDS011;35679;38.732;-121.358;2023-04-16T03:12:05;2.53;;;2.42;;
49784;SDS011;35679;38.732;-121.358;2023-04-16T03:14:55;2.60;;;2.50;;
49784;SDS011;35679;38.732;-121.358;2023-04-16T03:17:44;2.45;;;2.35;;
49784;SDS011;35679;38.732;-121.358;2023-04-16T03:20:33;2.60;;;2.50;;
49784;SDS011;35679;38.732;-121.358;2023-04-16T03:23:23;2.40;;;2.30;;
49784;SDS011;35679;38.732;-121.358;2023-04-16T03:26:12;2.50;;;2.40;;
49784;SDS011;35679;38.732;-121.358;2023-04-16T03:29:01;2.38;;;2.28;;
49784;SDS011;35679;38.732;-121.358;2023-04-16T03:31:52;2.50;;;2.40;;
49784;SDS011;35679;38.732;-121.358;2023-04-16T03:34:42;2.70;;;2.50;;
49784;SDS011;35679;38.732;-121.358;2023-04-16T03:37:32;2.13;;;2.03;;
49784;SDS011;35679;38.732;-121.358;2023-04-16T03:40:21;2.28;;;2.17;;
49784;SDS011;35679;38.732;-121.358;2023-04-16T03:43:12;2.50;;;2.40;;
49784;SDS011;35679;38.732;-121.358;2023-04-16T03:46:02;2.20;;;2.10;;
49784;SDS011;35679;38.732;-121.358;2023-04-16T03:48:51;2.53;;;2.33;;
49784;SDS011;35679;38.732;-121.358;2023-04-16T03:51:41;2.30;;;2.20;;
49784;SDS011;35679;38.732;-121.358;2023-04-16T03:54:30;2.38;;;2.20;;
49784;SDS011;35679;38.732;-121.358;2023-04-16T03:57:31;2.60;;;2.40;;
49784;SDS011;35679;38.732;-121.358;2023-04-16T04:00:26;2.33;;;2.22;;
49784;SDS011;35679;38.732;-121.358;2023-04-16T04:03:23;2.45;;;2.30;;
49784;SDS011;35679;38.732;-121.358;2023-04-16T04:06:15;2.40;;;2.30;;
49784;SDS011;35679;38.732;-121.358;2023-04-16T04:09:04;2.38;;;2.28;;
49784;SDS011;35679;38.732;-121.358;2023-04-16T04:11:54;2.60;;;2.50;;
49784;SDS011;35679;38.732;-121.358;2023-04-16T04:14:43;2.63;;;2.50;;
49784;SDS011;35679;38.732;-121.358;2023-04-16T04:17:32;2.40;;;2.25;;
49784;SDS011;35679;38.732;-121.358;2023-04-16T04:20:22;2.58;;;2.47;;
49784;SDS011;35679;38.732;-121.358;2023-04-16T04:23:12;2.33;;;2.17;;
49784;SDS011;35679;38.732;-121.358;2023-04-16T04:26:04;2.42;;;2.33;;
49784;SDS011;35679;38.732;-121.358;2023-04-16T04:28:54;2.50;;;2.40;;
49784;SDS011;35679;38.732;-121.358;2023-04-16T04:31:43;2.28;;;2.17;;
49784;SDS011;35679;38.732;-121.358;2023-04-16T04:34:33;2.70;;;2.50;;
49784;SDS011;35679;38.732;-121.358;2023-04-16T04:37:24;2.38;;;2.28;;
49784;SDS011;35679;38.732;-121.358;2023-04-16T04:40:13;2.55;;;2.45;;
49784;SDS011;35679;38.732;-121.358;2023-04-16T04:43:04;2.58;;;2.38;;
49784;SDS011;35679;38.732;-121.358;2023-04-16T04:45:53;2.70;;;2.50;;
49784;SDS011;35679;38.732;-121.358;2023-04-16T04:48:46;2.50;;;2.40;;
49784;SDS011;35679;38.732;-121.358;2023-04-16T04:51:36;2.63;;;2.42;;
49784;SDS011;35679;38.732;-121.358;2023-04-16T04:54:25;2.38;;;2.28;;
49784;SDS011;35679;38.732;-121.358;2023-04-16T04:57:16;3.58;;;2.80;;
49784;SDS011;35679;38.732;-121.358;2023-04-16T05:00:05;2.50;;;2.40;;
49784;SDS011;35679;38.732;-121.358;2023-04-16T05:03:09;2.30;;;2.20;;
49784;SDS011;35679;38.732;-121.358;2023-04-16T05:05:59;2.40;;;2.30;;
49784;SDS011;35679;38.732;-121.358;2023-04-16T05:08:49;2.42;;;2.33;;
49784;SDS011;35679;38.732;-121.358;2023-04-16T05:11:39;2.70;;;2.60;;
49784;SDS011;35679;38.732;-121.358;2023-04-16T05:14:29;2.95;;;2.75;;
49784;SDS011;35679;38.732;-121.358;2023-04-16T05:17:18;2.55;;;2.45;;
49784;SDS011;35679;38.732;-121.358;2023-04-16T05:20:08;2.40;;;2.30;;
49784;SDS011;35679;38.732;-121.358;2023-04-16T05:22:57;2.72;;;2.53;;
49784;SDS011;35679;38.732;-121.358;2023-04-16T05:25:46;2.17;;;2.08;;
49784;SDS011;35679;38.732;-121.358;2023-04-16T05:28:36;2.50;;;2.40;;
49784;SDS011;35679;38.732;-121.358;2023-04-16T05:31:25;2.72;;;2.60;;
49784;SDS011;35679;38.732;-121.358;2023-04-16T05:34:15;2.58;;;2.47;;
49784;SDS011;35679;38.732;-121.358;2023-04-16T05:37:04;2.60;;;2.40;;
49784;SDS011;35679;38.732;-121.358;2023-04-16T05:39:53;2.55;;;2.45;;
49784;SDS011;35679;38.732;-121.358;2023-04-16T05:42:42;2.60;;;2.50;;
49784;SDS011;35679;38.732;-121.358;2023-04-16T05:45:32;2.67;;;2.58;;
49784;SDS011;35679;38.732;-121.358;2023-04-16T05:48:26;2.47;;;2.38;;
49784;SDS011;35679;38.732;-121.358;2023-04-16T05:51:16;2.60;;;2.50;;
49784;SDS011;35679;38.732;-121.358;2023-04-16T05:54:05;2.67;;;2.50;;
49784;SDS011;35679;38.732;-121.358;2023-04-16T05:56:55;2.83;;;2.50;;
49784;SDS011;35679;38.732;-121.358;2023-04-16T05:59:44;2.83;;;2.63;;
49784;SDS011;35679;38.732;-121.358;2023-04-16T06:02:34;2.97;;;2.78;;
49784;SDS011;35679;38.732;-121.358;2023-04-16T06:05:28;2.90;;;2.70;;
49784;SDS011;35679;38.732;-121.358;2023-04-16T06:08:17;2.90;;;2.80;;
49784;SDS011;35679;38.732;-121.358;2023-04-16T06:11:07;2.45;;;2.35;;
49784;SDS011;35679;38.732;-121.358;2023-04-16T06:13:56;2.60;;;2.50;;
49784;SDS011;35679;38.732;-121.358;2023-04-16T06:16:45;2.88;;;2.67;;
49784;SDS011;35679;38.732;-121.358;2023-04-16T06:19:34;2.70;;;2.55;;
49784;SDS011;35679;38.732;-121.358;2023-04-16T06:22:24;2.88;;;2.67;;
49784;SDS011;35679;38.732;-121.358;2023-04-16T06:25:13;2.65;;;2.45;;
49784;SDS011;35679;38.732;-121.358;2023-04-16T06:28:04;2.80;;;2.70;;
49784;SDS011;35679;38.732;-121.358;2023-04-16T06:30:53;2.60;;;2.50;;
49784;SDS011;35679;38.732;-121.358;2023-04-16T06:33:43;2.88;;;2.67;;
49784;SDS011;35679;38.732;-121.358;2023-04-16T06:36:32;2.60;;;2.50;;
49784;SDS011;35679;38.732;-121.358;2023-04-16T06:39:22;2.80;;;2.60;;
49784;SDS011;35679;38.732;-121.358;2023-04-16T06:42:11;2.90;;;2.70;;
49784;SDS011;35679;38.732;-121.358;2023-04-16T06:45:00;2.65;;;2.45;;
49784;SDS011;35679;38.732;-121.358;2023-04-16T06:47:50;2.70;;;2.60;;
49784;SDS011;35679;38.732;-121.358;2023-04-16T06:50:40;2.50;;;2.40;;
49784;SDS011;35679;38.732;-121.358;2023-04-16T06:53:29;2.78;;;2.67;;
49784;SDS011;35679;38.732;-121.358;2023-04-16T06:56:18;3.05;;;2.80;;
49784;SDS011;35679;38.732;-121.358;2023-04-16T06:59:08;3.00;;;2.80;;
49784;SDS011;35679;38.732;-121.358;2023-04-16T07:01:58;2.50;;;2.40;;
49784;SDS011;35679;38.732;-121.358;2023-04-16T07:04:47;2.83;;;2.63;;
49784;SDS011;35679;38.732;-121.358;2023-04-16T07:07:37;2.58;;;2.47;;
49784;SDS011;35679;38.732;-121.358;2023-04-16T07:10:26;2.90;;;2.70;;
49784;SDS011;35679;38.732;-121.358;2023-04-16T07:13:16;2.78;;;2.60;;
49784;SDS011;35679;38.732;-121.358;2023-04-16T07:16:05;2.70;;;2.60;;
49784;SDS011;35679;38.732;-121.358;2023-04-16T07:18:55;2.78;;;2.55;;
49784;SDS011;35679;38.732;-121.358;2023-04-16T07:21:44;2.75;;;2.65;;
49784;SDS011;35679;38.732;-121.358;2023-04-16T07:24:34;3.78;;;2.50;;
49784;SDS011;35679;38.732;-121.358;2023-04-16T07:27:23;2.90;;;2.75;;
49784;SDS011;35679;38.732;-121.358;2023-04-16T07:30:13;2.70;;;2.50;;
49784;SDS011;35679;38.732;-121.358;2023-04-16T07:33:02;2.60;;;2.40;;
49784;SDS011;35679;38.732;-121.358;2023-04-16T07:35:52;2.45;;;2.35;;
49784;SDS011;35679;38.732;-121.358;2023-04-16T07:38:41;2.78;;;2.60;;
49784;SDS011;35679;38.732;-121.358;2023-04-16T07:41:30;2.47;;;2.38;;
49784;SDS011;35679;38.732;-121.358;2023-04-16T07:44:19;2.90;;;2.70;;
49784;SDS011;35679;38.732;-121.358;2023-04-16T07:47:09;2.63;;;2.42;;
49784;SDS011;35679;38.732;-121.358;2023-04-16T07:49:58;3.13;;;2.90;;
49784;SDS011;35679;38.732;-121.358;2023-04-16T07:52:47;2.75;;;2.55;;
49784;SDS011;35679;38.732;-121.358;2023-04-16T07:55:36;2.88;;;2.78;;
49784;SDS011;35679;38.732;-121.358;2023-04-16T07:58:26;2.90;;;2.70;;
49784;SDS011;35679;38.732;-121.358;2023-04-16T08:01:15;3.20;;;3.00;;
49784;SDS011;35679;38.732;-121.358;2023-04-16T08:04:04;2.47;;;2.38;;
49784;SDS011;35679;38.732;-121.358;2023-04-16T08:06:54;2.80;;;2.60;;
49784;SDS011;35679;38.732;-121.358;2023-04-16T08:09:47;2.92;;;2.72;;
49784;SDS011;35679;38.732;-121.358;2023-04-16T08:12:38;2.88;;;2.67;;
49784;SDS011;35679;38.732;-121.358;2023-04-16T08:15:28;2.78;;;2.58;;
49784;SDS011;35679;38.732;-121.358;2023-04-16T08:18:18;2.83;;;2.63;;
49784;SDS011;35679;38.732;-121.358;2023-04-16T08:21:07;2.72;;;2.60;;
49784;SDS011;35679;38.732;-121.358;2023-04-16T08:23:56;2.70;;;2.50;;
49784;SDS011;35679;38.732;-121.358;2023-04-16T08:26:46;2.70;;;2.60;;
49784;SDS011;35679;38.732;-121.358;2023-04-16T08:29:35;2.45;;;2.35;;
49784;SDS011;35679;38.732;-121.358;2023-04-16T08:32:25;2.78;;;2.50;;
49784;SDS011;35679;38.732;-121.358;2023-04-16T08:35:14;2.67;;;2.47;;
49784;SDS011;35679;38.732;-121.358;2023-04-16T08:38:03;3.22;;;3.03;;
49784;SDS011;35679;38.732;-121.358;2023-04-16T08:40:55;2.60;;;2.40;;
49784;SDS011;35679;38.732;-121.358;2023-04-16T08:43:45;2.67;;;2.47;;
49784;SDS011;35679;38.732;-121.358;2023-04-16T08:46:39;4.35;;;2.92;;
49784;SDS011;35679;38.732;-121.358;2023-04-16T08:49:29;3.25;;;3.05;;
49784;SDS011;35679;38.732;-121.358;2023-04-16T08:52:23;2.75;;;2.65;;
49784;SDS011;35679;38.732;-121.358;2023-04-16T08:55:15;3.08;;;2.88;;
49784;SDS011;35679;38.732;-121.358;2023-04-16T08:58:13;2.97;;;2.80;;
49784;SDS011;35679;38.732;-121.358;2023-04-16T09:01:13;2.65;;;2.55;;
49784;SDS011;35679;38.732;-121.358;2023-04-16T09:04:04;2.80;;;2.60;;
49784;SDS011;35679;38.732;-121.358;2023-04-16T09:06:55;2.95;;;2.75;;
49784;SDS011;35679;38.732;-121.358;2023-04-16T09:09:47;2.80;;;2.60;;
49784;SDS011;35679;38.732;-121.358;2023-04-16T09:12:38;2.92;;;2.72;;
49784;SDS011;35679;38.732;-121.358;2023-04-16T09:15:30;3.10;;;2.67;;
49784;SDS011;35679;38.732;-121.358;2023-04-16T09:18:21;2.78;;;2.40;;
49784;SDS011;35679;38.732;-121.358;2023-04-16T09:21:11;2.80;;;2.60;;
49784;SDS011;35679;38.732;-121.358;2023-04-16T09:24:01;2.63;;;2.42;;
49784;SDS011;35679;38.732;-121.358;2023-04-16T09:26:51;2.60;;;2.50;;
49784;SDS011;35679;38.732;-121.358;2023-04-16T09:29:42;2.88;;;2.67;;
49784;SDS011;35679;38.732;-121.358;2023-04-16T09:32:31;2.90;;;2.70;;
49784;SDS011;35679;38.732;-121.358;2023-04-16T09:35:21;2.97;;;2.70;;
49784;SDS011;35679;38.732;-121.358;2023-04-16T09:38:10;2.92;;;2.72;;
49784;SDS011;35679;38.732;-121.358;2023-04-16T09:41:06;3.13;;;2.92;;
49784;SDS011;35679;38.732;-121.358;2023-04-16T09:43:59;2.70;;;2.60;;
49784;SDS011;35679;38.732;-121.358;2023-04-16T09:46:51;3.33;;;3.03;;
49784;SDS011;35679;38.732;-121.358;2023-04-16T09:49:41;2.70;;;2.50;;
49784;SDS011;35679;38.732;-121.358;2023-04-16T09:52:30;2.90;;;2.70;;
49784;SDS011;35679;38.732;-121.358;2023-04-16T09:55:25;3.35;;;2.63;;
49784;SDS011;35679;38.732;-121.358;2023-04-16T09:58:17;2.67;;;2.47;;
49784;SDS011;35679;38.732;-121.358;2023-04-16T10:01:08;2.80;;;2.60;;
49784;SDS011;35679;38.732;-121.358;2023-04-16T10:03:58;3.03;;;2.83;;
49784;SDS011;35679;38.732;-121.358;2023-04-16T10:07:01;2.92;;;2.72;;
49784;SDS011;35679;38.732;-121.358;2023-04-16T10:09:52;2.60;;;2.40;;
49784;SDS011;35679;38.732;-121.358;2023-04-16T10:12:41;3.20;;;2.90;;
49784;SDS011;35679;38.732;-121.358;2023-04-16T10:15:31;3.30;;;3.00;;
49784;SDS011;35679;38.732;-121.358;2023-04-16T10:18:20;2.92;;;2.70;;
49784;SDS011;35679;38.732;-121.358;2023-04-16T10:21:10;3.35;;;2.70;;
49784;SDS011;35679;38.732;-121.358;2023-04-16T10:24:00;3.83;;;2.80;;
49784;SDS011;35679;38.732;-121.358;2023-04-16T10:26:53;2.70;;;2.50;;
49784;SDS011;35679;38.732;-121.358;2023-04-16T10:29:43;2.95;;;2.75;;
49784;SDS011;35679;38.732;-121.358;2023-04-16T10:32:33;2.95;;;2.75;;
49784;SDS011;35679;38.732;-121.358;2023-04-16T10:35:24;3.35;;;2.53;;
49784;SDS011;35679;38.732;-121.358;2023-04-16T10:38:20;4.20;;;3.03;;
49784;SDS011;35679;38.732;-121.358;2023-04-16T10:41:14;2.90;;;2.78;;
49784;SDS011;35679;38.732;-121.358;2023-04-16T10:44:04;3.10;;;2.92;;
49784;SDS011;35679;38.732;-121.358;2023-04-16T10:46:58;2.88;;;2.67;;
49784;SDS011;35679;38.732;-121.358;2023-04-16T10:49:48;3.03;;;2.83;;
49784;SDS011;35679;38.732;-121.358;2023-04-16T10:52:37;3.75;;;2.80;;
49784;SDS011;35679;38.732;-121.358;2023-04-16T10:55:28;2.83;;;2.72;;
49784;SDS011;35679;38.732;-121.358;2023-04-16T10:58:27;2.95;;;2.63;;
49784;SDS011;35679;38.732;-121.358;2023-04-16T11:01:22;2.50;;;2.40;;
49784;SDS011;35679;38.732;-121.358;2023-04-16T11:10:14;2.78;;;2.67;;
49784;SDS011;35679;38.732;-121.358;2023-04-16T11:13:03;3.60;;;3.25;;
49784;SDS011;35679;38.732;-121.358;2023-04-16T11:15:56;3.33;;;3.03;;
49784;SDS011;35679;38.732;-121.358;2023-04-16T11:18:46;2.90;;;2.70;;
49784;SDS011;35679;38.732;-121.358;2023-04-16T11:21:38;2.97;;;2.72;;
49784;SDS011;35679;38.732;-121.358;2023-04-16T11:24:30;3.03;;;2.83;;
49784;SDS011;35679;38.732;-121.358;2023-04-16T11:27:20;3.13;;;2.70;;
49784;SDS011;35679;38.732;-121.358;2023-04-16T11:30:13;2.70;;;2.60;;
49784;SDS011;35679;38.732;-121.358;2023-04-16T11:33:07;2.95;;;2.75;;
49784;SDS011;35679;38.732;-121.358;2023-04-16T11:35:58;3.28;;;2.97;;
49784;SDS011;35679;38.732;-121.358;2023-04-16T11:38:48;2.92;;;2.72;;
49784;SDS011;35679;38.732;-121.358;2023-04-16T11:44:35;3.22;;;2.92;;
49784;SDS011;35679;38.732;-121.358;2023-04-16T11:47:25;3.33;;;3.00;;
49784;SDS011;35679;38.732;-121.358;2023-04-16T11:50:16;3.17;;;2.80;;
49784;SDS011;35679;38.732;-121.358;2023-04-16T11:53:17;3.10;;;2.90;;
49784;SDS011;35679;38.732;-121.358;2023-04-16T11:56:06;3.08;;;2.88;;
49784;SDS011;35679;38.732;-121.358;2023-04-16T11:59:08;3.05;;;2.75;;
49784;SDS011;35679;38.732;-121.358;2023-04-16T12:02:00;2.80;;;2.60;;
49784;SDS011;35679;38.732;-121.358;2023-04-16T12:04:50;3.45;;;2.70;;
49784;SDS011;35679;38.732;-121.358;2023-04-16T12:07:43;3.05;;;2.92;;
49784;SDS011;35679;38.732;-121.358;2023-04-16T12:10:36;3.03;;;2.83;;
49784;SDS011;35679;38.732;-121.358;2023-04-16T12:13:39;3.10;;;2.90;;
49784;SDS011;35679;38.732;-121.358;2023-04-16T12:16:29;2.83;;;2.63;;
49784;SDS011;35679;38.732;-121.358;2023-04-16T12:19:20;3.38;;;3.00;;
49784;SDS011;35679;38.732;-121.358;2023-04-16T12:22:10;3.85;;;3.22;;
49784;SDS011;35679;38.732;-121.358;2023-04-16T12:25:00;3.38;;;3.17;;
49784;SDS011;35679;38.732;-121.358;2023-04-16T12:27:56;3.10;;;2.90;;
49784;SDS011;35679;38.732;-121.358;2023-04-16T12:30:49;3.00;;;2.80;;
49784;SDS011;35679;38.732;-121.358;2023-04-16T12:33:41;3.08;;;2.88;;
49784;SDS011;35679;38.732;-121.358;2023-04-16T12:36:30;4.30;;;2.97;;
49784;SDS011;35679;38.732;-121.358;2023-04-16T12:39:19;2.80;;;2.60;;
49784;SDS011;35679;38.732;-121.358;2023-04-16T12:42:09;2.83;;;2.70;;
49784;SDS011;35679;38.732;-121.358;2023-04-16T12:45:02;3.05;;;2.90;;
49784;SDS011;35679;38.732;-121.358;2023-04-16T12:47:52;3.20;;;3.00;;
49784;SDS011;35679;38.732;-121.358;2023-04-16T12:50:43;3.00;;;2.80;;
49784;SDS011;35679;38.732;-121.358;2023-04-16T12:53:32;3.10;;;2.90;;
49784;SDS011;35679;38.732;-121.358;2023-04-16T12:56:22;3.00;;;2.80;;
49784;SDS011;35679;38.732;-121.358;2023-04-16T12:59:11;2.90;;;2.70;;
49784;SDS011;35679;38.732;-121.358;2023-04-16T13:02:00;3.10;;;2.90;;
49784;SDS011;35679;38.732;-121.358;2023-04-16T13:04:50;3.40;;;3.08;;
49784;SDS011;35679;38.732;-121.358;2023-04-16T13:07:40;3.10;;;2.90;;
49784;SDS011;35679;38.732;-121.358;2023-04-16T13:10:30;4.35;;;3.20;;
49784;SDS011;35679;38.732;-121.358;2023-04-16T13:13:19;3.40;;;3.20;;
49784;SDS011;35679;38.732;-121.358;2023-04-16T13:16:08;4.90;;;3.08;;
49784;SDS011;35679;38.732;-121.358;2023-04-16T13:18:58;3.30;;;3.00;;
49784;SDS011;35679;38.732;-121.358;2023-04-16T13:21:47;3.42;;;3.13;;
49784;SDS011;35679;38.732;-121.358;2023-04-16T13:24:37;3.00;;;2.80;;
49784;SDS011;35679;38.732;-121.358;2023-04-16T13:27:26;3.22;;;2.97;;
49784;SDS011;35679;38.732;-121.358;2023-04-16T13:30:15;3.53;;;3.05;;
49784;SDS011;35679;38.732;-121.358;2023-04-16T13:33:04;5.72;;;2.97;;
49784;SDS011;35679;38.732;-121.358;2023-04-16T13:35:54;2.90;;;2.70;;
49784;SDS011;35679;38.732;-121.358;2023-04-16T13:38:43;2.60;;;2.40;;
49784;SDS011;35679;38.732;-121.358;2023-04-16T13:41:33;2.88;;;2.63;;
49784;SDS011;35679;38.732;-121.358;2023-04-16T13:44:22;2.67;;;2.45;;
49784;SDS011;35679;38.732;-121.358;2023-04-16T13:47:11;2.50;;;2.40;;
49784;SDS011;35679;38.732;-121.358;2023-04-16T13:50:01;4.05;;;2.40;;
49784;SDS011;35679;38.732;-121.358;2023-04-16T13:52:50;3.72;;;2.60;;
49784;SDS011;35679;38.732;-121.358;2023-04-16T13:55:39;4.22;;;2.60;;
49784;SDS011;35679;38.732;-121.358;2023-04-16T13:58:29;2.80;;;2.60;;
49784;SDS011;35679;38.732;-121.358;2023-04-16T14:01:18;4.18;;;2.65;;
49784;SDS011;35679;38.732;-121.358;2023-04-16T14:04:08;2.58;;;2.40;;
49784;SDS011;35679;38.732;-121.358;2023-04-16T14:06:57;2.47;;;2.30;;
49784;SDS011;35679;38.732;-121.358;2023-04-16T14:09:47;2.58;;;2.40;;
49784;SDS011;35679;38.732;-121.358;2023-04-16T14:12:36;2.60;;;2.40;;
49784;SDS011;35679;38.732;-121.358;2023-04-16T14:15:26;2.33;;;2.22;;
49784;SDS011;35679;38.732;-121.358;2023-04-16T14:18:17;2.83;;;2.72;;
49784;SDS011;35679;38.732;-121.358;2023-04-16T14:21:07;2.75;;;2.50;;
49784;SDS011;35679;38.732;-121.358;2023-04-16T14:23:56;3.88;;;3.08;;
49784;SDS011;35679;38.732;-121.358;2023-04-16T14:26:45;3.15;;;2.80;;
49784;SDS011;35679;38.732;-121.358;2023-04-16T14:29:35;2.53;;;2.42;;
49784;SDS011;35679;38.732;-121.358;2023-04-16T14:32:24;3.15;;;2.63;;
49784;SDS011;35679;38.732;-121.358;2023-04-16T14:35:14;2.50;;;2.30;;
49784;SDS011;35679;38.732;-121.358;2023-04-16T14:38:03;2.70;;;2.50;;
49784;SDS011;35679;38.732;-121.358;2023-04-16T14:40:53;3.30;;;2.60;;
49784;SDS011;35679;38.732;-121.358;2023-04-16T14:43:43;2.90;;;2.65;;
49784;SDS011;35679;38.732;-121.358;2023-04-16T14:46:32;2.58;;;2.40;;
49784;SDS011;35679;38.732;-121.358;2023-04-16T14:49:21;3.22;;;2.78;;
49784;SDS011;35679;38.732;-121.358;2023-04-16T14:52:11;2.50;;;2.30;;
49784;SDS011;35679;38.732;-121.358;2023-04-16T14:55:00;2.50;;;2.40;;
49784;SDS011;35679;38.732;-121.358;2023-04-16T14:57:50;2.88;;;2.67;;
49784;SDS011;35679;38.732;-121.358;2023-04-16T15:00:39;2.53;;;2.30;;
49784;SDS011;35679;38.732;-121.358;2023-04-16T15:03:29;3.30;;;2.95;;
49784;SDS011;35679;38.732;-121.358;2023-04-16T15:06:19;2.95;;;2.58;;
49784;SDS011;35679;38.732;-121.358;2023-04-16T15:09:09;2.80;;;2.55;;
49784;SDS011;35679;38.732;-121.358;2023-04-16T15:12:01;3.78;;;2.50;;
49784;SDS011;35679;38.732;-121.358;2023-04-16T15:14:51;2.90;;;2.70;;
49784;SDS011;35679;38.732;-121.358;2023-04-16T15:17:41;3.22;;;2.92;;
49784;SDS011;35679;38.732;-121.358;2023-04-16T15:20:31;5.30;;;3.10;;
49784;SDS011;35679;38.732;-121.358;2023-04-16T15:23:20;2.65;;;2.45;;
49784;SDS011;35679;38.732;-121.358;2023-04-16T15:26:10;3.45;;;2.70;;
49784;SDS011;35679;38.732;-121.358;2023-04-16T15:28:59;4.22;;;2.53;;
49784;SDS011;35679;38.732;-121.358;2023-04-16T15:31:48;3.70;;;2.75;;
49784;SDS011;35679;38.732;-121.358;2023-04-16T15:34:38;2.90;;;2.70;;
49784;SDS011;35679;38.732;-121.358;2023-04-16T15:37:28;3.83;;;2.80;;
49784;SDS011;35679;38.732;-121.358;2023-04-16T15:40:18;3.03;;;2.75;;
49784;SDS011;35679;38.732;-121.358;2023-04-16T15:43:08;5.13;;;2.60;;
49784;SDS011;35679;38.732;-121.358;2023-04-16T15:45:57;3.10;;;2.80;;
49784;SDS011;35679;38.732;-121.358;2023-04-16T15:48:47;3.85;;;2.75;;
49784;SDS011;35679;38.732;-121.358;2023-04-16T15:51:36;3.38;;;3.08;;
49784;SDS011;35679;38.732;-121.358;2023-04-16T15:54:25;3.45;;;3.15;;
49784;SDS011;35679;38.732;-121.358;2023-04-16T15:57:15;5.72;;;3.72;;
49784;SDS011;35679;38.732;-121.358;2023-04-16T16:00:04;3.50;;;3.20;;
49784;SDS011;35679;38.732;-121.358;2023-04-16T16:03:14;3.40;;;3.10;;
49784;SDS011;35679;38.732;-121.358;2023-04-16T16:06:07;3.83;;;3.40;;
49784;SDS011;35679;38.732;-121.358;2023-04-16T16:08:57;3.90;;;3.22;;
49784;SDS011;35679;38.732;-121.358;2023-04-16T16:11:46;3.75;;;3.33;;
49784;SDS011;35679;38.732;-121.358;2023-04-16T16:14:36;4.95;;;3.53;;
49784;SDS011;35679;38.732;-121.358;2023-04-16T16:17:25;5.57;;;3.53;;
49784;SDS011;35679;38.732;-121.358;2023-04-16T16:20:14;3.45;;;3.15;;
49784;SDS011;35679;38.732;-121.358;2023-04-16T16:23:03;4.68;;;3.20;;
49784;SDS011;35679;38.732;-121.358;2023-04-16T16:25:53;3.58;;;3.20;;
49784;SDS011;35679;38.732;-121.358;2023-04-16T16:28:42;4.97;;;3.10;;
49784;SDS011;35679;38.732;-121.358;2023-04-16T16:31:31;6.47;;;3.70;;